RYR587A LICA-EGSS
Flight info
| Callsign | RYR587A |
|---|---|
| Flight time | 2h 42m |
| Altitude | 36000 |
| Route | ARBUM DCT EVINO DCT GALTI DCT GOSEB DCT EKMIL DCT ARDAM DCT LAPAB DCT ROKIB DCT UNIMI DCT XEBIX DCT USUDO DCT LIRSU DCT ARCKY DCT SPI DCT KOZUF DCT IMPOH DCT SASKI L608 SUMUM Y6 TOSVA |
| Aircraft | B738/M-SDE2E3FGHIRWXY/LB1 |
Departure
| Time | 2026-04-24 07:15 |
|---|---|
| Airport | Lamezia Terme Sant'Eufemia International Airport (LICA) |
Arrival
| Time | 2026-04-24 09:58 |
|---|---|
| Airport | London Stansted Airport (EGSS) |
| Time | Latitude | Longitude | Altitude | Speed | Heading |
|---|---|---|---|---|---|
| 2026-04-24 06:54 | 38.90879 | 16.24455 | 30 ft | 0 kts | 54° |
| 2026-04-24 07:08 | 38.90882 | 16.24461 | 31 ft | 2 kts | 60° |
| 2026-04-24 07:09 | 38.90871 | 16.24480 | 31 ft | 3 kts | 161° |
| 2026-04-24 07:09 | 38.90854 | 16.24462 | 31 ft | 3 kts | 238° |
| 2026-04-24 07:09 | 38.90831 | 16.24456 | 30 ft | 2 kts | 187° |
| 2026-04-24 07:09 | 38.90830 | 16.24456 | 30 ft | 0 kts | 188° |
| 2026-04-24 07:10 | 38.90815 | 16.24442 | 31 ft | 4 kts | 234° |
| 2026-04-24 07:10 | 38.90816 | 16.24409 | 31 ft | 4 kts | 277° |
| 2026-04-24 07:10 | 38.90819 | 16.24377 | 31 ft | 4 kts | 277° |
| 2026-04-24 07:10 | 38.90823 | 16.24344 | 31 ft | 6 kts | 278° |
| 2026-04-24 07:11 | 38.90835 | 16.24244 | 31 ft | 17 kts | 278° |
| 2026-04-24 07:11 | 38.90853 | 16.24087 | 31 ft | 18 kts | 278° |
| 2026-04-24 07:11 | 38.90871 | 16.23929 | 31 ft | 17 kts | 278° |
| 2026-04-24 07:11 | 38.90878 | 16.23824 | 31 ft | 10 kts | 251° |
| 2026-04-24 07:12 | 38.90826 | 16.23765 | 31 ft | 10 kts | 248° |
| 2026-04-24 07:12 | 38.90831 | 16.23652 | 31 ft | 15 kts | 278° |
| 2026-04-24 07:12 | 38.90847 | 16.23515 | 31 ft | 19 kts | 278° |
| 2026-04-24 07:12 | 38.90867 | 16.23341 | 31 ft | 20 kts | 278° |
| 2026-04-24 07:13 | 38.90876 | 16.23171 | 31 ft | 19 kts | 262° |
| 2026-04-24 07:13 | 38.90832 | 16.23017 | 31 ft | 18 kts | 237° |
| 2026-04-24 07:13 | 38.90746 | 16.22912 | 32 ft | 17 kts | 189° |
| 2026-04-24 07:13 | 38.90687 | 16.22979 | 33 ft | 11 kts | 103° |
| 2026-04-24 07:14 | 38.90671 | 16.23100 | 35 ft | 29 kts | 98° |
| 2026-04-24 07:14 | 38.90609 | 16.23644 | 31 ft | 93 kts | 98° |
| 2026-04-24 07:14 | 38.90485 | 16.24710 | 31 ft | 146 kts | 98° |
| 2026-04-24 07:14 | 38.90348 | 16.25935 | 107 ft | 175 kts | 98° |
| 2026-04-24 07:15 | 38.90288 | 16.26323 | 180 ft | 176 kts | 102° |
| 2026-04-24 07:15 | 38.90077 | 16.27820 | 818 ft | 172 kts | 99° |
| 2026-04-24 07:16 | 38.89858 | 16.29322 | 1414 ft | 173 kts | 100° |
| 2026-04-24 07:16 | 38.89632 | 16.30865 | 1990 ft | 178 kts | 99° |
| 2026-04-24 07:16 | 38.89401 | 16.32443 | 2627 ft | 179 kts | 98° |
| 2026-04-24 07:16 | 38.89171 | 16.34001 | 3272 ft | 179 kts | 98° |
| 2026-04-24 07:17 | 38.88940 | 16.35581 | 3903 ft | 183 kts | 99° |
| 2026-04-24 07:17 | 38.88571 | 16.37145 | 4524 ft | 185 kts | 123° |
| 2026-04-24 07:17 | 38.87570 | 16.38161 | 5081 ft | 191 kts | 160° |
| 2026-04-24 07:17 | 38.86236 | 16.38173 | 5589 ft | 195 kts | 200° |
| 2026-04-24 07:18 | 38.85149 | 16.37129 | 6114 ft | 201 kts | 238° |
| 2026-04-24 07:18 | 38.84741 | 16.35438 | 6582 ft | 205 kts | 272° |
| 2026-04-24 07:18 | 38.84791 | 16.33563 | 6795 ft | 220 kts | 276° |
| 2026-04-24 07:18 | 38.84920 | 16.31518 | 6919 ft | 239 kts | 277° |
| 2026-04-24 07:19 | 38.85192 | 16.29345 | 7021 ft | 255 kts | 295° |
| 2026-04-24 07:19 | 38.86285 | 16.27507 | 7176 ft | 268 kts | 320° |
| 2026-04-24 07:19 | 38.87717 | 16.25900 | 7662 ft | 276 kts | 322° |
| 2026-04-24 07:19 | 38.89178 | 16.24285 | 8328 ft | 278 kts | 322° |
| 2026-04-24 07:20 | 38.90151 | 16.23209 | 8786 ft | 279 kts | 322° |
| 2026-04-24 07:20 | 38.92117 | 16.21025 | 9652 ft | 284 kts | 322° |
| 2026-04-24 07:20 | 38.93614 | 16.19350 | 10280 ft | 287 kts | 322° |
| 2026-04-24 07:20 | 38.94652 | 16.18187 | 10468 ft | 299 kts | 322° |
| 2026-04-24 07:21 | 38.96252 | 16.16391 | 10624 ft | 318 kts | 322° |
| 2026-04-24 07:21 | 38.97969 | 16.14458 | 10767 ft | 338 kts | 322° |
| 2026-04-24 07:21 | 38.99765 | 16.12427 | 11115 ft | 348 kts | 322° |
| 2026-04-24 07:21 | 39.01520 | 16.10434 | 11673 ft | 351 kts | 322° |
| 2026-04-24 07:22 | 39.03357 | 16.08344 | 12325 ft | 353 kts | 322° |
| 2026-04-24 07:22 | 39.05203 | 16.06242 | 12957 ft | 355 kts | 323° |
| 2026-04-24 07:22 | 39.07061 | 16.04126 | 13602 ft | 358 kts | 323° |
| 2026-04-24 07:22 | 39.08936 | 16.01991 | 14203 ft | 361 kts | 323° |
| 2026-04-24 07:23 | 39.10759 | 15.99912 | 14768 ft | 364 kts | 323° |
| 2026-04-24 07:23 | 39.12643 | 15.97764 | 15357 ft | 366 kts | 322° |
| 2026-04-24 07:23 | 39.14555 | 15.95581 | 15942 ft | 369 kts | 322° |
| 2026-04-24 07:23 | 39.16485 | 15.93377 | 16524 ft | 372 kts | 321° |
| 2026-04-24 07:24 | 39.18405 | 15.91182 | 17102 ft | 374 kts | 321° |
| 2026-04-24 07:24 | 39.20362 | 15.88942 | 17713 ft | 377 kts | 321° |
| 2026-04-24 07:24 | 39.22326 | 15.86693 | 18305 ft | 379 kts | 321° |
| 2026-04-24 07:24 | 39.24309 | 15.84423 | 18813 ft | 382 kts | 321° |
| 2026-04-24 07:25 | 39.26305 | 15.82134 | 19314 ft | 384 kts | 321° |
| 2026-04-24 07:25 | 39.28312 | 15.79835 | 19807 ft | 387 kts | 321° |
| 2026-04-24 07:25 | 39.30353 | 15.77553 | 20299 ft | 389 kts | 322° |
| 2026-04-24 07:25 | 39.32419 | 15.75279 | 20774 ft | 392 kts | 322° |
| 2026-04-24 07:26 | 39.34504 | 15.72994 | 21249 ft | 394 kts | 322° |
| 2026-04-24 07:26 | 39.36606 | 15.70687 | 21714 ft | 397 kts | 322° |
| 2026-04-24 07:26 | 39.38685 | 15.68398 | 22167 ft | 399 kts | 322° |
| 2026-04-24 07:26 | 39.40809 | 15.66054 | 22619 ft | 402 kts | 322° |
| 2026-04-24 07:27 | 39.42940 | 15.63698 | 23056 ft | 404 kts | 321° |
| 2026-04-24 07:27 | 39.45087 | 15.61320 | 23479 ft | 407 kts | 321° |
| 2026-04-24 07:27 | 39.47244 | 15.58927 | 23874 ft | 409 kts | 321° |
| 2026-04-24 07:27 | 39.49411 | 15.56520 | 24235 ft | 411 kts | 321° |
| 2026-04-24 07:28 | 39.51591 | 15.54097 | 24592 ft | 414 kts | 321° |
| 2026-04-24 07:28 | 39.53785 | 15.51658 | 24934 ft | 416 kts | 321° |
| 2026-04-24 07:28 | 39.55960 | 15.49237 | 25272 ft | 418 kts | 321° |
| 2026-04-24 07:28 | 39.58180 | 15.46764 | 25607 ft | 421 kts | 321° |
| 2026-04-24 07:29 | 39.60411 | 15.44276 | 25932 ft | 423 kts | 321° |
| 2026-04-24 07:29 | 39.62648 | 15.41779 | 26255 ft | 425 kts | 321° |
| 2026-04-24 07:29 | 39.64898 | 15.39267 | 26561 ft | 427 kts | 321° |
| 2026-04-24 07:29 | 39.67126 | 15.36776 | 26878 ft | 429 kts | 321° |
| 2026-04-24 07:30 | 39.69405 | 15.34259 | 27191 ft | 431 kts | 324° |
| 2026-04-24 07:30 | 39.71898 | 15.32100 | 27477 ft | 430 kts | 333° |
| 2026-04-24 07:30 | 39.74613 | 15.30471 | 27771 ft | 430 kts | 342° |
| 2026-04-24 07:30 | 39.77442 | 15.29202 | 28078 ft | 431 kts | 343° |
| 2026-04-24 07:31 | 39.80292 | 15.27959 | 28317 ft | 434 kts | 343° |
| 2026-04-24 07:31 | 39.83166 | 15.26707 | 28514 ft | 437 kts | 343° |
| 2026-04-24 07:31 | 39.86060 | 15.25435 | 28776 ft | 439 kts | 342° |
| 2026-04-24 07:31 | 39.88954 | 15.24149 | 29089 ft | 440 kts | 342° |
| 2026-04-24 07:32 | 39.91830 | 15.22860 | 29330 ft | 443 kts | 342° |
| 2026-04-24 07:32 | 39.94760 | 15.21541 | 29531 ft | 446 kts | 342° |
| 2026-04-24 07:32 | 39.97697 | 15.20214 | 29863 ft | 446 kts | 342° |
| 2026-04-24 07:32 | 40.00608 | 15.18895 | 30287 ft | 443 kts | 342° |
| 2026-04-24 07:33 | 40.03515 | 15.17576 | 30651 ft | 441 kts | 342° |
| 2026-04-24 07:33 | 40.06412 | 15.16261 | 30962 ft | 440 kts | 342° |
| 2026-04-24 07:33 | 40.09304 | 15.14948 | 31239 ft | 440 kts | 342° |
| 2026-04-24 07:33 | 40.12192 | 15.13636 | 31537 ft | 439 kts | 342° |
| 2026-04-24 07:34 | 40.15034 | 15.12344 | 31827 ft | 438 kts | 342° |
| 2026-04-24 07:34 | 40.17950 | 15.11017 | 32069 ft | 438 kts | 342° |
| 2026-04-24 07:34 | 40.20793 | 15.09723 | 32350 ft | 437 kts | 342° |
| 2026-04-24 07:34 | 40.23664 | 15.08414 | 32684 ft | 435 kts | 342° |
| 2026-04-24 07:35 | 40.26521 | 15.07110 | 33019 ft | 434 kts | 342° |
| 2026-04-24 07:35 | 40.29372 | 15.05809 | 33302 ft | 433 kts | 342° |
| 2026-04-24 07:35 | 40.32216 | 15.04509 | 33568 ft | 433 kts | 342° |
| 2026-04-24 07:35 | 40.35058 | 15.03209 | 33856 ft | 431 kts | 342° |
| 2026-04-24 07:36 | 40.37891 | 15.01912 | 34116 ft | 431 kts | 343° |
| 2026-04-24 07:36 | 40.40723 | 15.00614 | 34267 ft | 432 kts | 343° |
| 2026-04-24 07:36 | 40.43462 | 14.99358 | 34455 ft | 432 kts | 343° |
| 2026-04-24 07:36 | 40.46297 | 14.98056 | 34685 ft | 431 kts | 342° |
| 2026-04-24 07:37 | 40.49132 | 14.96753 | 34913 ft | 430 kts | 342° |
| 2026-04-24 07:37 | 40.51921 | 14.95470 | 35092 ft | 430 kts | 342° |
| 2026-04-24 07:37 | 40.54744 | 14.94170 | 35265 ft | 430 kts | 342° |
| 2026-04-24 07:37 | 40.57568 | 14.92869 | 35444 ft | 430 kts | 342° |
| 2026-04-24 07:38 | 40.60392 | 14.91567 | 35550 ft | 431 kts | 342° |
| 2026-04-24 07:38 | 40.63236 | 14.90255 | 35588 ft | 434 kts | 342° |
| 2026-04-24 07:38 | 40.66092 | 14.88930 | 35784 ft | 434 kts | 342° |
| 2026-04-24 07:38 | 40.68928 | 14.87600 | 36036 ft | 431 kts | 342° |
| 2026-04-24 07:39 | 40.71759 | 14.86267 | 36159 ft | 432 kts | 342° |
| 2026-04-24 07:39 | 40.74604 | 14.84925 | 36156 ft | 434 kts | 342° |
| 2026-04-24 07:39 | 40.80289 | 14.82241 | 36148 ft | 432 kts | 342° |
| 2026-04-24 07:40 | 40.85900 | 14.79589 | 36151 ft | 430 kts | 342° |
| 2026-04-24 07:40 | 40.91523 | 14.76929 | 36163 ft | 428 kts | 342° |
| 2026-04-24 07:41 | 40.97142 | 14.74266 | 36166 ft | 428 kts | 342° |
| 2026-04-24 07:41 | 41.02745 | 14.71607 | 36165 ft | 429 kts | 342° |
| 2026-04-24 07:42 | 41.08343 | 14.68944 | 36168 ft | 430 kts | 343° |
| 2026-04-24 07:42 | 41.13995 | 14.66252 | 36170 ft | 432 kts | 342° |
| 2026-04-24 07:43 | 41.19677 | 14.63540 | 36162 ft | 434 kts | 342° |
| 2026-04-24 07:43 | 41.25350 | 14.60826 | 36159 ft | 436 kts | 342° |
| 2026-04-24 07:44 | 41.31073 | 14.58084 | 36161 ft | 437 kts | 343° |
| 2026-04-24 07:44 | 41.36811 | 14.55329 | 36161 ft | 438 kts | 343° |
| 2026-04-24 07:45 | 41.42555 | 14.52566 | 36157 ft | 439 kts | 343° |
| 2026-04-24 07:45 | 41.48311 | 14.49792 | 36156 ft | 440 kts | 343° |
| 2026-04-24 07:46 | 41.54017 | 14.46988 | 36159 ft | 440 kts | 342° |
| 2026-04-24 07:46 | 41.59709 | 14.43969 | 36165 ft | 440 kts | 341° |
| 2026-04-24 07:47 | 41.65399 | 14.40915 | 36161 ft | 440 kts | 341° |
| 2026-04-24 07:47 | 41.71085 | 14.37880 | 36149 ft | 439 kts | 341° |
| 2026-04-24 07:48 | 41.76763 | 14.34858 | 36161 ft | 438 kts | 341° |
| 2026-04-24 07:48 | 41.82386 | 14.31863 | 36158 ft | 437 kts | 341° |
| 2026-04-24 07:49 | 41.88035 | 14.28848 | 36160 ft | 436 kts | 341° |
| 2026-04-24 07:49 | 41.93665 | 14.25836 | 36160 ft | 434 kts | 341° |
| 2026-04-24 07:50 | 41.99272 | 14.22832 | 36160 ft | 433 kts | 341° |
| 2026-04-24 07:50 | 42.04819 | 14.19853 | 36158 ft | 432 kts | 341° |
| 2026-04-24 07:51 | 42.10413 | 14.16844 | 36165 ft | 433 kts | 341° |
| 2026-04-24 07:51 | 42.16012 | 14.13827 | 36157 ft | 434 kts | 341° |
| 2026-04-24 07:52 | 42.21598 | 14.10659 | 36158 ft | 436 kts | 340° |
| 2026-04-24 07:52 | 42.27127 | 14.07351 | 36160 ft | 438 kts | 339° |
| 2026-04-24 07:53 | 42.32708 | 14.04005 | 36166 ft | 438 kts | 340° |
| 2026-04-24 07:53 | 42.38292 | 14.00672 | 36177 ft | 439 kts | 340° |
| 2026-04-24 07:54 | 42.43793 | 13.97395 | 36165 ft | 439 kts | 340° |
| 2026-04-24 07:54 | 42.49379 | 13.94063 | 36165 ft | 438 kts | 340° |
| 2026-04-24 07:55 | 42.54917 | 13.90754 | 36162 ft | 437 kts | 340° |
| 2026-04-24 07:55 | 42.60466 | 13.87431 | 36167 ft | 435 kts | 340° |
| 2026-04-24 07:56 | 42.66008 | 13.84106 | 36152 ft | 434 kts | 340° |
| 2026-04-24 07:56 | 42.71533 | 13.80785 | 36161 ft | 433 kts | 340° |
| 2026-04-24 07:57 | 42.77015 | 13.77484 | 36165 ft | 432 kts | 340° |
| 2026-04-24 07:57 | 42.82509 | 13.74169 | 36155 ft | 432 kts | 340° |
| 2026-04-24 07:58 | 42.88014 | 13.70841 | 36166 ft | 432 kts | 340° |
| 2026-04-24 07:58 | 42.93489 | 13.67524 | 36165 ft | 433 kts | 340° |
| 2026-04-24 07:59 | 42.99004 | 13.64177 | 36164 ft | 434 kts | 340° |
| 2026-04-24 07:59 | 43.04516 | 13.60824 | 36168 ft | 434 kts | 340° |
| 2026-04-24 08:00 | 43.10037 | 13.57460 | 36163 ft | 434 kts | 340° |
| 2026-04-24 08:00 | 43.15564 | 13.54085 | 36168 ft | 434 kts | 340° |
| 2026-04-24 08:01 | 43.21063 | 13.50720 | 36162 ft | 434 kts | 340° |
| 2026-04-24 08:01 | 43.26579 | 13.47337 | 36158 ft | 434 kts | 340° |
| 2026-04-24 08:02 | 43.32095 | 13.43949 | 36160 ft | 433 kts | 340° |
| 2026-04-24 08:02 | 43.37567 | 13.40581 | 36164 ft | 433 kts | 340° |
| 2026-04-24 08:03 | 43.43072 | 13.37186 | 36161 ft | 433 kts | 340° |
| 2026-04-24 08:03 | 43.48581 | 13.33782 | 36163 ft | 433 kts | 340° |
| 2026-04-24 08:04 | 43.54100 | 13.30364 | 36159 ft | 434 kts | 340° |
| 2026-04-24 08:04 | 43.59610 | 13.26945 | 36157 ft | 434 kts | 340° |
| 2026-04-24 08:05 | 43.65065 | 13.23554 | 36153 ft | 434 kts | 340° |
| 2026-04-24 08:05 | 43.70580 | 13.20118 | 36159 ft | 434 kts | 340° |
| 2026-04-24 08:06 | 43.76090 | 13.16679 | 36160 ft | 434 kts | 340° |
| 2026-04-24 08:06 | 43.81561 | 13.13256 | 36138 ft | 433 kts | 340° |
| 2026-04-24 08:07 | 43.87058 | 13.09811 | 36151 ft | 433 kts | 340° |
| 2026-04-24 08:07 | 43.91663 | 13.06919 | 36152 ft | 433 kts | 340° |
| 2026-04-24 08:08 | 43.97150 | 13.03468 | 36147 ft | 433 kts | 340° |
| 2026-04-24 08:09 | 44.05272 | 12.98346 | 36147 ft | 434 kts | 340° |
| 2026-04-24 08:09 | 44.10773 | 12.94868 | 36144 ft | 434 kts | 340° |
| 2026-04-24 08:10 | 44.16243 | 12.91402 | 36142 ft | 434 kts | 340° |
| 2026-04-24 08:10 | 44.21753 | 12.87903 | 36147 ft | 435 kts | 340° |
| 2026-04-24 08:11 | 44.27260 | 12.84400 | 36144 ft | 435 kts | 340° |
| 2026-04-24 08:11 | 44.32774 | 12.80885 | 36150 ft | 435 kts | 340° |
| 2026-04-24 08:12 | 44.38285 | 12.77363 | 36146 ft | 435 kts | 340° |
| 2026-04-24 08:12 | 44.43794 | 12.73836 | 36155 ft | 435 kts | 340° |
| 2026-04-24 08:13 | 44.49274 | 12.70321 | 36154 ft | 436 kts | 340° |
| 2026-04-24 08:13 | 44.54792 | 12.66774 | 36152 ft | 436 kts | 340° |
| 2026-04-24 08:14 | 44.60307 | 12.63221 | 36151 ft | 436 kts | 340° |
| 2026-04-24 08:14 | 44.65818 | 12.59663 | 36150 ft | 436 kts | 340° |
| 2026-04-24 08:15 | 44.71330 | 12.56096 | 36131 ft | 435 kts | 340° |
| 2026-04-24 08:15 | 44.76793 | 12.52555 | 36147 ft | 435 kts | 340° |
| 2026-04-24 08:16 | 44.82275 | 12.48929 | 36148 ft | 435 kts | 338° |
| 2026-04-24 08:16 | 44.87671 | 12.45024 | 36146 ft | 436 kts | 337° |
| 2026-04-24 08:17 | 44.93048 | 12.41071 | 36144 ft | 436 kts | 337° |
| 2026-04-24 08:17 | 44.98432 | 12.37142 | 36135 ft | 436 kts | 337° |
| 2026-04-24 08:18 | 45.03818 | 12.33227 | 36123 ft | 435 kts | 337° |
| 2026-04-24 08:18 | 45.09206 | 12.29308 | 36134 ft | 435 kts | 337° |
| 2026-04-24 08:19 | 45.14590 | 12.25383 | 36141 ft | 435 kts | 337° |
| 2026-04-24 08:19 | 45.19938 | 12.21475 | 36137 ft | 435 kts | 337° |
| 2026-04-24 08:20 | 45.25320 | 12.17535 | 36135 ft | 435 kts | 337° |
| 2026-04-24 08:20 | 45.30705 | 12.13583 | 36129 ft | 435 kts | 337° |
| 2026-04-24 08:21 | 45.36089 | 12.09622 | 36139 ft | 435 kts | 337° |
| 2026-04-24 08:21 | 45.41479 | 12.05649 | 36132 ft | 435 kts | 337° |
| 2026-04-24 08:22 | 45.46832 | 12.01694 | 36134 ft | 436 kts | 337° |
| 2026-04-24 08:22 | 45.52149 | 11.97760 | 36137 ft | 436 kts | 337° |
| 2026-04-24 08:23 | 45.57581 | 11.93909 | 36132 ft | 435 kts | 339° |
| 2026-04-24 08:23 | 45.63062 | 11.90213 | 36131 ft | 435 kts | 339° |
| 2026-04-24 08:24 | 45.68495 | 11.86524 | 36132 ft | 435 kts | 339° |
| 2026-04-24 08:24 | 45.73963 | 11.82772 | 36129 ft | 435 kts | 338° |
| 2026-04-24 08:25 | 45.79432 | 11.79003 | 36141 ft | 435 kts | 338° |
| 2026-04-24 08:25 | 45.84900 | 11.75226 | 36147 ft | 435 kts | 338° |
| 2026-04-24 08:26 | 45.90323 | 11.71474 | 36149 ft | 436 kts | 338° |
| 2026-04-24 08:26 | 45.95802 | 11.67699 | 36147 ft | 436 kts | 339° |
| 2026-04-24 08:27 | 46.01308 | 11.64031 | 36142 ft | 437 kts | 339° |
| 2026-04-24 08:27 | 46.06827 | 11.60369 | 36155 ft | 437 kts | 339° |
| 2026-04-24 08:28 | 46.12344 | 11.56686 | 36159 ft | 436 kts | 339° |
| 2026-04-24 08:28 | 46.17812 | 11.53020 | 36149 ft | 436 kts | 339° |
| 2026-04-24 08:29 | 46.23313 | 11.49320 | 36177 ft | 436 kts | 339° |
| 2026-04-24 08:29 | 46.28830 | 11.45602 | 36158 ft | 436 kts | 339° |
| 2026-04-24 08:30 | 46.34323 | 11.41890 | 36161 ft | 434 kts | 339° |
| 2026-04-24 08:30 | 46.39759 | 11.38209 | 36170 ft | 433 kts | 339° |
| 2026-04-24 08:31 | 46.45221 | 11.34504 | 36189 ft | 433 kts | 339° |
| 2026-04-24 08:31 | 46.50675 | 11.30797 | 36181 ft | 433 kts | 339° |
| 2026-04-24 08:32 | 46.56094 | 11.27103 | 36187 ft | 433 kts | 339° |
| 2026-04-24 08:32 | 46.61553 | 11.23374 | 36193 ft | 434 kts | 338° |
| 2026-04-24 08:33 | 46.67040 | 11.19618 | 36189 ft | 436 kts | 338° |
| 2026-04-24 08:33 | 46.72554 | 11.15834 | 36183 ft | 438 kts | 338° |
| 2026-04-24 08:34 | 46.78078 | 11.12037 | 36198 ft | 440 kts | 338° |
| 2026-04-24 08:34 | 46.83593 | 11.08233 | 36207 ft | 442 kts | 338° |
| 2026-04-24 08:35 | 46.88945 | 11.03664 | 36211 ft | 449 kts | 327° |
| 2026-04-24 08:35 | 46.93901 | 10.98261 | 36220 ft | 450 kts | 326° |
| 2026-04-24 08:36 | 46.98914 | 10.92762 | 36218 ft | 449 kts | 326° |
| 2026-04-24 08:36 | 47.03925 | 10.87321 | 36249 ft | 448 kts | 327° |
| 2026-04-24 08:37 | 47.08924 | 10.81922 | 36241 ft | 448 kts | 327° |
| 2026-04-24 08:37 | 47.13933 | 10.76484 | 36234 ft | 446 kts | 327° |
| 2026-04-24 08:38 | 47.18927 | 10.71054 | 36231 ft | 444 kts | 326° |
| 2026-04-24 08:38 | 47.23875 | 10.65663 | 36212 ft | 441 kts | 326° |
| 2026-04-24 08:39 | 47.28760 | 10.60327 | 36226 ft | 438 kts | 326° |
| 2026-04-24 08:39 | 47.33649 | 10.54974 | 36208 ft | 437 kts | 326° |
| 2026-04-24 08:40 | 47.38533 | 10.49616 | 36212 ft | 438 kts | 326° |
| 2026-04-24 08:40 | 47.43401 | 10.44173 | 36198 ft | 439 kts | 324° |
| 2026-04-24 08:41 | 47.48242 | 10.38581 | 36207 ft | 442 kts | 324° |
| 2026-04-24 08:41 | 47.53072 | 10.32981 | 36204 ft | 445 kts | 324° |
| 2026-04-24 08:42 | 47.57965 | 10.27315 | 36210 ft | 447 kts | 324° |
| 2026-04-24 08:42 | 47.62873 | 10.21628 | 36212 ft | 449 kts | 324° |
| 2026-04-24 08:43 | 47.67805 | 10.15902 | 36205 ft | 450 kts | 324° |
| 2026-04-24 08:43 | 47.72704 | 10.10200 | 36197 ft | 450 kts | 324° |
| 2026-04-24 08:44 | 47.77626 | 10.04455 | 36207 ft | 449 kts | 324° |
| 2026-04-24 08:44 | 47.82465 | 9.98794 | 36209 ft | 449 kts | 323° |
| 2026-04-24 08:45 | 47.87379 | 9.93030 | 36203 ft | 448 kts | 323° |
| 2026-04-24 08:45 | 47.92243 | 9.87313 | 36209 ft | 447 kts | 323° |
| 2026-04-24 08:46 | 47.97117 | 9.81568 | 36207 ft | 446 kts | 323° |
| 2026-04-24 08:46 | 48.01970 | 9.75833 | 36201 ft | 445 kts | 323° |
| 2026-04-24 08:47 | 48.06789 | 9.70127 | 36209 ft | 444 kts | 323° |
| 2026-04-24 08:47 | 48.11495 | 9.64134 | 36220 ft | 445 kts | 318° |
| 2026-04-24 08:48 | 48.15941 | 9.57664 | 36210 ft | 446 kts | 316° |
| 2026-04-24 08:48 | 48.20364 | 9.51126 | 36205 ft | 446 kts | 317° |
| 2026-04-24 08:49 | 48.24804 | 9.44612 | 36208 ft | 446 kts | 316° |
| 2026-04-24 08:49 | 48.29231 | 9.38145 | 36217 ft | 447 kts | 316° |
| 2026-04-24 08:50 | 48.33702 | 9.31614 | 36219 ft | 448 kts | 316° |
| 2026-04-24 08:50 | 48.38168 | 9.25074 | 36224 ft | 448 kts | 316° |
| 2026-04-24 08:51 | 48.42635 | 9.18512 | 36222 ft | 449 kts | 316° |
| 2026-04-24 08:51 | 48.47077 | 9.11971 | 36221 ft | 449 kts | 316° |
| 2026-04-24 08:52 | 48.51540 | 9.05381 | 36216 ft | 449 kts | 316° |
| 2026-04-24 08:52 | 48.55915 | 8.98904 | 36233 ft | 449 kts | 316° |
| 2026-04-24 08:53 | 48.60381 | 8.92276 | 36232 ft | 450 kts | 316° |
| 2026-04-24 08:53 | 48.64759 | 8.85760 | 36231 ft | 450 kts | 316° |
| 2026-04-24 08:54 | 48.69275 | 8.79022 | 36229 ft | 450 kts | 316° |
| 2026-04-24 08:54 | 48.73730 | 8.72359 | 36219 ft | 451 kts | 315° |
| 2026-04-24 08:55 | 48.77466 | 8.66756 | 36225 ft | 451 kts | 315° |
| 2026-04-24 08:55 | 48.81922 | 8.60058 | 36214 ft | 451 kts | 315° |
| 2026-04-24 08:56 | 48.86353 | 8.53380 | 36240 ft | 452 kts | 315° |
| 2026-04-24 08:56 | 48.90810 | 8.46643 | 36234 ft | 452 kts | 315° |
| 2026-04-24 08:57 | 48.95281 | 8.39869 | 36227 ft | 453 kts | 315° |
| 2026-04-24 08:57 | 48.99748 | 8.33081 | 36247 ft | 453 kts | 315° |
| 2026-04-24 08:58 | 49.04184 | 8.26324 | 36239 ft | 453 kts | 315° |
| 2026-04-24 08:58 | 49.08645 | 8.19510 | 36236 ft | 453 kts | 315° |
| 2026-04-24 08:59 | 49.13086 | 8.12708 | 36236 ft | 452 kts | 315° |
| 2026-04-24 08:59 | 49.17514 | 8.05907 | 36232 ft | 450 kts | 314° |
| 2026-04-24 09:00 | 49.21871 | 7.99199 | 36234 ft | 449 kts | 314° |
| 2026-04-24 09:00 | 49.26236 | 7.92459 | 36244 ft | 448 kts | 314° |
| 2026-04-24 09:01 | 49.30608 | 7.85692 | 36248 ft | 448 kts | 314° |
| 2026-04-24 09:01 | 49.35026 | 7.78833 | 36250 ft | 455 kts | 314° |
| 2026-04-24 09:02 | 49.39514 | 7.71847 | 36244 ft | 462 kts | 314° |
| 2026-04-24 09:02 | 49.44032 | 7.64795 | 36242 ft | 464 kts | 314° |
| 2026-04-24 09:03 | 49.48567 | 7.57697 | 36234 ft | 466 kts | 313° |
| 2026-04-24 09:03 | 49.53108 | 7.50570 | 36246 ft | 467 kts | 313° |
| 2026-04-24 09:04 | 49.57622 | 7.43465 | 36244 ft | 466 kts | 313° |
| 2026-04-24 09:04 | 49.62152 | 7.36315 | 36226 ft | 466 kts | 313° |
| 2026-04-24 09:05 | 49.66676 | 7.29153 | 36236 ft | 465 kts | 313° |
| 2026-04-24 09:05 | 49.71185 | 7.21996 | 36228 ft | 464 kts | 312° |
| 2026-04-24 09:06 | 49.75687 | 7.14829 | 36225 ft | 464 kts | 312° |
| 2026-04-24 09:06 | 49.80152 | 7.07700 | 36234 ft | 463 kts | 312° |
| 2026-04-24 09:07 | 49.84631 | 7.00528 | 36225 ft | 463 kts | 312° |
| 2026-04-24 09:07 | 49.91269 | 6.89863 | 36225 ft | 462 kts | 312° |
| 2026-04-24 09:08 | 49.95729 | 6.82673 | 36248 ft | 462 kts | 311° |
| 2026-04-24 09:08 | 50.00144 | 6.75532 | 36246 ft | 462 kts | 311° |
| 2026-04-24 09:09 | 50.04599 | 6.68308 | 36245 ft | 462 kts | 311° |
| 2026-04-24 09:09 | 50.09040 | 6.61085 | 36240 ft | 462 kts | 311° |
| 2026-04-24 09:10 | 50.13478 | 6.53847 | 36224 ft | 461 kts | 311° |
| 2026-04-24 09:10 | 50.17886 | 6.46577 | 36227 ft | 460 kts | 308° |
| 2026-04-24 09:11 | 50.19776 | 6.42584 | 36233 ft | 456 kts | 297° |
| 2026-04-24 09:11 | 50.21284 | 6.38305 | 36249 ft | 454 kts | 295° |
| 2026-04-24 09:11 | 50.24232 | 6.29570 | 36240 ft | 455 kts | 295° |
| 2026-04-24 09:12 | 50.27241 | 6.20845 | 36255 ft | 455 kts | 295° |
| 2026-04-24 09:12 | 50.30293 | 6.12149 | 36248 ft | 456 kts | 297° |
| 2026-04-24 09:13 | 50.33775 | 6.03801 | 36269 ft | 458 kts | 301° |
| 2026-04-24 09:13 | 50.37321 | 5.95758 | 36266 ft | 458 kts | 301° |
| 2026-04-24 09:14 | 50.40886 | 5.87499 | 36288 ft | 457 kts | 300° |
| 2026-04-24 09:14 | 50.44418 | 5.79179 | 36281 ft | 458 kts | 300° |
| 2026-04-24 09:15 | 50.47940 | 5.70845 | 36309 ft | 457 kts | 300° |
| 2026-04-24 09:15 | 50.51458 | 5.62507 | 36318 ft | 458 kts | 300° |
| 2026-04-24 09:16 | 50.55034 | 5.54278 | 36311 ft | 458 kts | 301° |
| 2026-04-24 09:16 | 50.58690 | 5.46044 | 36328 ft | 459 kts | 301° |
| 2026-04-24 09:17 | 50.62335 | 5.37794 | 36323 ft | 459 kts | 301° |
| 2026-04-24 09:17 | 50.65946 | 5.29560 | 36321 ft | 459 kts | 301° |
| 2026-04-24 09:18 | 50.69567 | 5.21259 | 36324 ft | 459 kts | 300° |
| 2026-04-24 09:18 | 50.73178 | 5.12954 | 36332 ft | 459 kts | 300° |
| 2026-04-24 09:19 | 50.76785 | 5.04633 | 36337 ft | 459 kts | 300° |
| 2026-04-24 09:19 | 50.80316 | 4.96462 | 36343 ft | 460 kts | 300° |
| 2026-04-24 09:20 | 50.83922 | 4.88092 | 36347 ft | 460 kts | 300° |
| 2026-04-24 09:20 | 50.87519 | 4.79715 | 36350 ft | 459 kts | 300° |
| 2026-04-24 09:21 | 50.91111 | 4.71324 | 36349 ft | 459 kts | 300° |
| 2026-04-24 09:21 | 50.94696 | 4.62920 | 36350 ft | 460 kts | 299° |
| 2026-04-24 09:22 | 50.98252 | 4.54559 | 36348 ft | 460 kts | 299° |
| 2026-04-24 09:22 | 51.01824 | 4.46134 | 36349 ft | 460 kts | 299° |
| 2026-04-24 09:23 | 51.05389 | 4.37696 | 36350 ft | 460 kts | 299° |
| 2026-04-24 09:23 | 51.08951 | 4.29238 | 36347 ft | 460 kts | 299° |
| 2026-04-24 09:24 | 51.12507 | 4.20768 | 36347 ft | 460 kts | 299° |
| 2026-04-24 09:24 | 51.16035 | 4.12336 | 36342 ft | 460 kts | 299° |
| 2026-04-24 09:25 | 51.19574 | 4.03850 | 36343 ft | 459 kts | 299° |
| 2026-04-24 09:25 | 51.23064 | 3.95456 | 36330 ft | 459 kts | 298° |
| 2026-04-24 09:26 | 51.26597 | 3.86928 | 36333 ft | 459 kts | 298° |
| 2026-04-24 09:26 | 51.30122 | 3.78394 | 36345 ft | 459 kts | 298° |
| 2026-04-24 09:27 | 51.33613 | 3.69914 | 36332 ft | 459 kts | 298° |
| 2026-04-24 09:27 | 51.36307 | 3.60825 | 36332 ft | 447 kts | 281° |
| 2026-04-24 09:28 | 51.37135 | 3.56011 | 36106 ft | 450 kts | 280° |
| 2026-04-24 09:28 | 51.37943 | 3.51161 | 35795 ft | 451 kts | 280° |
| 2026-04-24 09:28 | 51.38758 | 3.46292 | 35345 ft | 452 kts | 280° |
| 2026-04-24 09:28 | 51.39573 | 3.41515 | 34945 ft | 449 kts | 280° |
| 2026-04-24 09:29 | 51.40405 | 3.36690 | 34532 ft | 450 kts | 281° |
| 2026-04-24 09:29 | 51.41244 | 3.31855 | 34103 ft | 451 kts | 281° |
| 2026-04-24 09:29 | 51.42084 | 3.27018 | 33625 ft | 451 kts | 281° |
| 2026-04-24 09:29 | 51.42922 | 3.22176 | 33178 ft | 451 kts | 281° |
| 2026-04-24 09:30 | 51.43757 | 3.17334 | 32760 ft | 450 kts | 281° |
| 2026-04-24 09:30 | 51.44631 | 3.12499 | 32317 ft | 451 kts | 282° |
| 2026-04-24 09:30 | 51.45554 | 3.07668 | 31888 ft | 453 kts | 283° |
| 2026-04-24 09:30 | 51.46480 | 3.02915 | 31471 ft | 451 kts | 283° |
| 2026-04-24 09:31 | 51.47383 | 2.98283 | 31066 ft | 451 kts | 283° |
| 2026-04-24 09:31 | 51.48314 | 2.93469 | 30651 ft | 453 kts | 282° |
| 2026-04-24 09:31 | 51.49241 | 2.88630 | 30189 ft | 454 kts | 282° |
| 2026-04-24 09:31 | 51.50161 | 2.83790 | 29731 ft | 454 kts | 282° |
| 2026-04-24 09:32 | 51.51081 | 2.78922 | 29280 ft | 454 kts | 282° |
| 2026-04-24 09:32 | 51.51997 | 2.74061 | 28823 ft | 455 kts | 282° |
| 2026-04-24 09:32 | 51.52911 | 2.69195 | 28378 ft | 456 kts | 282° |
| 2026-04-24 09:32 | 51.53825 | 2.64314 | 27929 ft | 457 kts | 282° |
| 2026-04-24 09:33 | 51.54741 | 2.59416 | 27475 ft | 459 kts | 283° |
| 2026-04-24 09:33 | 51.55658 | 2.54490 | 27016 ft | 461 kts | 283° |
| 2026-04-24 09:33 | 51.56579 | 2.49540 | 26549 ft | 463 kts | 283° |
| 2026-04-24 09:33 | 51.57500 | 2.44572 | 26104 ft | 465 kts | 283° |
| 2026-04-24 09:34 | 51.58425 | 2.39573 | 25735 ft | 465 kts | 283° |
| 2026-04-24 09:34 | 51.59334 | 2.34651 | 25275 ft | 466 kts | 283° |
| 2026-04-24 09:34 | 51.60254 | 2.29654 | 24825 ft | 463 kts | 284° |
| 2026-04-24 09:34 | 51.61160 | 2.24724 | 24370 ft | 457 kts | 284° |
| 2026-04-24 09:35 | 51.62054 | 2.19846 | 23881 ft | 452 kts | 284° |
| 2026-04-24 09:35 | 51.63032 | 2.15069 | 23230 ft | 446 kts | 288° |
| 2026-04-24 09:35 | 51.64177 | 2.10426 | 22495 ft | 444 kts | 290° |
| 2026-04-24 09:35 | 51.65382 | 2.05856 | 21753 ft | 441 kts | 291° |
| 2026-04-24 09:36 | 51.66591 | 2.01338 | 21168 ft | 436 kts | 292° |
| 2026-04-24 09:36 | 51.67743 | 1.97002 | 20720 ft | 428 kts | 291° |
| 2026-04-24 09:36 | 51.68878 | 1.92663 | 20441 ft | 424 kts | 290° |
| 2026-04-24 09:36 | 51.70018 | 1.88233 | 20418 ft | 432 kts | 290° |
| 2026-04-24 09:37 | 51.71173 | 1.83696 | 20388 ft | 438 kts | 291° |
| 2026-04-24 09:37 | 51.72321 | 1.79158 | 20376 ft | 436 kts | 291° |
| 2026-04-24 09:37 | 51.73463 | 1.74641 | 20371 ft | 435 kts | 290° |
| 2026-04-24 09:37 | 51.74604 | 1.70109 | 20382 ft | 436 kts | 291° |
| 2026-04-24 09:38 | 51.75747 | 1.65564 | 20385 ft | 435 kts | 291° |
| 2026-04-24 09:38 | 51.76882 | 1.61033 | 20381 ft | 435 kts | 290° |
| 2026-04-24 09:38 | 51.78011 | 1.56507 | 20385 ft | 435 kts | 291° |
| 2026-04-24 09:38 | 51.79139 | 1.51977 | 20378 ft | 435 kts | 290° |
| 2026-04-24 09:39 | 51.80254 | 1.47502 | 20378 ft | 435 kts | 290° |
| 2026-04-24 09:39 | 51.81383 | 1.42956 | 20377 ft | 435 kts | 290° |
| 2026-04-24 09:39 | 51.82509 | 1.38414 | 20378 ft | 435 kts | 290° |
| 2026-04-24 09:39 | 51.83624 | 1.33919 | 20123 ft | 424 kts | 290° |
| 2026-04-24 09:40 | 51.84716 | 1.29505 | 19626 ft | 419 kts | 290° |
| 2026-04-24 09:40 | 51.85796 | 1.25129 | 18971 ft | 418 kts | 290° |
| 2026-04-24 09:40 | 51.86506 | 1.22240 | 18465 ft | 418 kts | 290° |
| 2026-04-24 09:40 | 51.87929 | 1.16443 | 17584 ft | 415 kts | 291° |
| 2026-04-24 09:41 | 51.88982 | 1.12148 | 17037 ft | 409 kts | 291° |
| 2026-04-24 09:41 | 51.90025 | 1.07883 | 16458 ft | 405 kts | 291° |
| 2026-04-24 09:41 | 51.90723 | 1.05028 | 16077 ft | 403 kts | 291° |
| 2026-04-24 09:41 | 51.91731 | 1.00893 | 15992 ft | 386 kts | 291° |
| 2026-04-24 09:42 | 51.92605 | 0.97029 | 15887 ft | 373 kts | 285° |
| 2026-04-24 09:42 | 51.93226 | 0.93066 | 15770 ft | 352 kts | 282° |
| 2026-04-24 09:42 | 51.93758 | 0.89298 | 15635 ft | 334 kts | 281° |
| 2026-04-24 09:42 | 51.94255 | 0.85692 | 15559 ft | 321 kts | 281° |
| 2026-04-24 09:43 | 51.94729 | 0.82195 | 15372 ft | 316 kts | 281° |
| 2026-04-24 09:43 | 51.95189 | 0.78727 | 15099 ft | 313 kts | 281° |
| 2026-04-24 09:43 | 51.95642 | 0.75280 | 14743 ft | 313 kts | 281° |
| 2026-04-24 09:43 | 51.96090 | 0.71823 | 14453 ft | 311 kts | 281° |
| 2026-04-24 09:44 | 51.96531 | 0.68368 | 14152 ft | 310 kts | 281° |
| 2026-04-24 09:44 | 51.96959 | 0.64967 | 13835 ft | 308 kts | 281° |
| 2026-04-24 09:44 | 51.97381 | 0.61565 | 13472 ft | 308 kts | 281° |
| 2026-04-24 09:44 | 51.97793 | 0.58197 | 13115 ft | 308 kts | 281° |
| 2026-04-24 09:45 | 51.98204 | 0.54790 | 12836 ft | 305 kts | 281° |
| 2026-04-24 09:45 | 51.98607 | 0.51413 | 12461 ft | 305 kts | 281° |
| 2026-04-24 09:45 | 51.98991 | 0.48112 | 12342 ft | 290 kts | 281° |
| 2026-04-24 09:45 | 51.99357 | 0.44974 | 12220 ft | 276 kts | 281° |
| 2026-04-24 09:46 | 51.99710 | 0.41962 | 11925 ft | 270 kts | 281° |
| 2026-04-24 09:46 | 52.00057 | 0.38974 | 11547 ft | 268 kts | 281° |
| 2026-04-24 09:46 | 52.00399 | 0.35991 | 11119 ft | 268 kts | 281° |
| 2026-04-24 09:46 | 52.00720 | 0.33047 | 10746 ft | 267 kts | 277° |
| 2026-04-24 09:47 | 52.00521 | 0.30062 | 10415 ft | 269 kts | 247° |
| 2026-04-24 09:47 | 51.99525 | 0.27544 | 10189 ft | 265 kts | 228° |
| 2026-04-24 09:47 | 51.98302 | 0.25317 | 9933 ft | 264 kts | 226° |
| 2026-04-24 09:47 | 51.97091 | 0.23181 | 9669 ft | 263 kts | 226° |
| 2026-04-24 09:48 | 51.95835 | 0.20979 | 9412 ft | 262 kts | 226° |
| 2026-04-24 09:48 | 51.94637 | 0.18877 | 9167 ft | 260 kts | 226° |
| 2026-04-24 09:48 | 51.93411 | 0.16730 | 8921 ft | 259 kts | 226° |
| 2026-04-24 09:48 | 51.92189 | 0.14614 | 8632 ft | 256 kts | 225° |
| 2026-04-24 09:49 | 51.90984 | 0.12519 | 8224 ft | 257 kts | 226° |
| 2026-04-24 09:49 | 51.89774 | 0.10405 | 7875 ft | 254 kts | 226° |
| 2026-04-24 09:49 | 51.88577 | 0.08305 | 7557 ft | 253 kts | 226° |
| 2026-04-24 09:49 | 51.87391 | 0.06220 | 7206 ft | 251 kts | 226° |
| 2026-04-24 09:50 | 51.86233 | 0.04187 | 7075 ft | 240 kts | 226° |
| 2026-04-24 09:50 | 51.85111 | 0.02211 | 6766 ft | 238 kts | 226° |
| 2026-04-24 09:50 | 51.83996 | 0.00236 | 6417 ft | 237 kts | 226° |
| 2026-04-24 09:50 | 51.82917 | -0.01674 | 6115 ft | 235 kts | 225° |
| 2026-04-24 09:51 | 51.81714 | -0.03411 | 5937 ft | 230 kts | 204° |
| 2026-04-24 09:51 | 51.80245 | -0.04226 | 5643 ft | 225 kts | 191° |
| 2026-04-24 09:51 | 51.78724 | -0.04849 | 5331 ft | 224 kts | 191° |
| 2026-04-24 09:51 | 51.77246 | -0.05448 | 5147 ft | 215 kts | 191° |
| 2026-04-24 09:52 | 51.75799 | -0.06037 | 4873 ft | 213 kts | 191° |
| 2026-04-24 09:52 | 51.74359 | -0.06562 | 4520 ft | 210 kts | 181° |
| 2026-04-24 09:52 | 51.72982 | -0.06107 | 4137 ft | 200 kts | 143° |
| 2026-04-24 09:52 | 51.72160 | -0.04476 | 4029 ft | 185 kts | 107° |
| 2026-04-24 09:53 | 51.72156 | -0.02430 | 3719 ft | 187 kts | 72° |
| 2026-04-24 09:53 | 51.72633 | -0.00519 | 3546 ft | 181 kts | 66° |
| 2026-04-24 09:53 | 51.73432 | 0.01012 | 3332 ft | 181 kts | 37° |
| 2026-04-24 09:53 | 51.74422 | 0.02237 | 3091 ft | 178 kts | 45° |
| 2026-04-24 09:54 | 51.75326 | 0.03610 | 3051 ft | 183 kts | 46° |
| 2026-04-24 09:54 | 51.76249 | 0.05020 | 3019 ft | 181 kts | 47° |
| 2026-04-24 09:54 | 51.77152 | 0.06426 | 3006 ft | 179 kts | 45° |
| 2026-04-24 09:54 | 51.78060 | 0.07764 | 2932 ft | 176 kts | 44° |
| 2026-04-24 09:55 | 51.78989 | 0.09088 | 2746 ft | 181 kts | 46° |
| 2026-04-24 09:55 | 51.79873 | 0.10469 | 2499 ft | 182 kts | 46° |
| 2026-04-24 09:55 | 51.80784 | 0.11861 | 2268 ft | 178 kts | 46° |
| 2026-04-24 09:55 | 51.81684 | 0.13173 | 2032 ft | 169 kts | 44° |
| 2026-04-24 09:56 | 51.82523 | 0.14457 | 1772 ft | 163 kts | 46° |
| 2026-04-24 09:56 | 51.83322 | 0.15687 | 1563 ft | 154 kts | 45° |
| 2026-04-24 09:56 | 51.84061 | 0.16799 | 1402 ft | 136 kts | 45° |
| 2026-04-24 09:56 | 51.84748 | 0.17833 | 1182 ft | 135 kts | 44° |
| 2026-04-24 09:57 | 51.85441 | 0.18877 | 991 ft | 135 kts | 42° |
| 2026-04-24 09:57 | 51.86122 | 0.19903 | 817 ft | 132 kts | 41° |
| 2026-04-24 09:57 | 51.86800 | 0.20921 | 647 ft | 134 kts | 44° |
| 2026-04-24 09:57 | 51.87479 | 0.21948 | 458 ft | 134 kts | 44° |
| 2026-04-24 09:58 | 51.88158 | 0.22959 | 356 ft | 126 kts | 44° |
| 2026-04-24 09:58 | 51.88723 | 0.23815 | 347 ft | 91 kts | 42° |
| 2026-04-24 09:58 | 51.89038 | 0.24317 | 352 ft | 35 kts | 64° |
| 2026-04-24 09:58 | 51.89103 | 0.24548 | 349 ft | 15 kts | 68° |
| 2026-04-24 09:59 | 51.89142 | 0.24703 | 350 ft | 14 kts | 68° |
| 2026-04-24 09:59 | 51.89169 | 0.24809 | 349 ft | 0 kts | 68° |
| 2026-04-24 09:59 | 51.89170 | 0.24825 | 350 ft | 6 kts | 85° |
| 2026-04-24 10:00 | 51.89157 | 0.24932 | 349 ft | 13 kts | 75° |
| 2026-04-24 10:00 | 51.89216 | 0.25049 | 350 ft | 14 kts | 57° |
| 2026-04-24 10:00 | 51.89269 | 0.25183 | 350 ft | 13 kts | 57° |
| 2026-04-24 10:00 | 51.89269 | 0.25185 | 349 ft | 13 kts | 57° |
| 2026-04-24 10:01 | 51.89301 | 0.25238 | 352 ft | 13 kts | 44° |
| 2026-04-24 10:01 | 51.89367 | 0.25336 | 350 ft | 13 kts | 42° |
| 2026-04-24 10:01 | 51.89431 | 0.25430 | 348 ft | 12 kts | 42° |
| 2026-04-24 10:01 | 51.89493 | 0.25525 | 355 ft | 12 kts | 44° |
| 2026-04-24 10:02 | 51.89553 | 0.25616 | 348 ft | 12 kts | 43° |
| 2026-04-24 10:02 | 51.89609 | 0.25709 | 349 ft | 11 kts | 63° |
| 2026-04-24 10:02 | 51.89579 | 0.25815 | 350 ft | 11 kts | 145° |
| 2026-04-24 10:02 | 51.89516 | 0.25883 | 354 ft | 11 kts | 133° |
| 2026-04-24 10:03 | 51.89473 | 0.25959 | 348 ft | 8 kts | 133° |
| 2026-04-24 10:03 | 51.89437 | 0.26021 | 348 ft | 6 kts | 133° |
| 2026-04-24 10:03 | 51.89405 | 0.26034 | 348 ft | 4 kts | 194° |
| 2026-04-24 10:03 | 51.89385 | 0.26013 | 356 ft | 3 kts | 222° |
| 2026-04-24 10:04 | 51.89374 | 0.25997 | 348 ft | 0 kts | 222° |